Sanostee, NM (87461)

10:17 AM MST on December 25, 2014 (GMT -0700)
Four Corners Regional | Change Station
CLOSE
Current Station
Airport
Location: Farmington,
Elevation: 5502 ft
Nearby Weather Stations

Elev 5502 ft 36.74 °N, 108.23 °W | Updated 24 minutes ago

Overcast
Overcast
39 °F
Feels Like 36 °F
N
5
Wind Variable Wind from ENE

Today
High -- | Low -- °F
--% Chance of Precip.
Yesterday
High -- | Low -- °F
Precip. -- in
7:25 AM 5:06 PM
Waxing Crescent, 17% visible
Pressure 29.64 in
Visibility 10.0 miles
Clouds Overcast 6000 ft
Windchill 36 °F
Dew Point 16 °F
Humidity 39%
Rainfall 0.00 in
Snow Depth Not available.
UV 1 out of 12
Pollen .40 out of 12
Air Quality Not available.
Flu Activity Not available.
METAR KFMN 251653Z 07004KT 10SM OVC060 04/M09 A2962 RMK AO2 SLP035 T00391089

More Conditions Fewer Conditions

Pressure 29.64 in
Visibility 10.0 miles
Clouds Overcast 6000 ft
Windchill 36 °F
Dew Point 16 °F
Humidity 39%
Rainfall 0.00 in
Snow Depth Not available.
UV 1 out of 12
Pollen .40 out of 12
Air Quality Not available.
Flu Activity Not available.
METAR KFMN 251653Z 07004KT 10SM OVC060 04/M09 A2962 RMK AO2 SLP035 T00391089

More Conditions Fewer Conditions

Nowcast | as of 9:30 am MST on December 25, 2014

Through late morning scattered to isolated light snow showers will continue to develop across west central and northwest areas along and west of the Continental Divide. Stronger showers may drop the visibility to around 3 miles at times. By noon up to 1 inch of snow accumulation will be possible in the mountains north of I-40...mainly on west facing slopes.

×

10-Day Weather Forecast

Almanac

Astronomy

Dec. 25, 2014 Rise Set
Actual Time
Civil Twilight
Nautical Twilight
Astronomical Twilight
Moon
Length of Visible Light
Length of Day
Tomorrow will be .
, % of the Moon is Illuminated

Today's Extremes

State Highs State Lows

Community

WunderPhotos

Upload Photos

1,780,346 photos uploaded!

WunderBlogs® & News

Nearby

Air Quality

  Air Quality AQ Index Pollutant
Not available.

Snow Depth

Station Depth Elevation

Earthquake Activity

City Distance Mag. Time & Date
Minimum magnitude displayed is 2.5.

Coastal Water Temperatures

Place Temperature

Nearby Weather Stations